createdAt,value
2018-12-29T00:01:37.413Z,7.20
2018-12-29T00:06:36.950Z,7.10
2018-12-29T00:11:36.500Z,7.10
2018-12-29T00:16:36.063Z,7.10
2018-12-29T00:21:35.687Z,7.10
2018-12-29T00:26:35.227Z,7.10
2018-12-29T00:31:34.782Z,7.10
2018-12-29T00:36:34.328Z,7.10
2018-12-29T00:41:33.876Z,7.00
2018-12-29T00:46:33.414Z,7.00
2018-12-29T00:51:32.955Z,7.00
2018-12-29T00:56:32.650Z,7.00
2018-12-29T01:01:32.207Z,7.10
2018-12-29T01:06:31.799Z,7.00
2018-12-29T01:11:31.376Z,7.10
2018-12-29T01:16:30.994Z,7.10
2018-12-29T01:21:30.536Z,7.10
2018-12-29T01:26:30.130Z,7.10
2018-12-29T01:31:29.789Z,7.00
2018-12-29T01:36:29.496Z,7.00
2018-12-29T01:41:29.102Z,7.00
2018-12-29T01:46:28.656Z,7.00
2018-12-29T01:51:28.190Z,6.90
2018-12-29T01:56:27.738Z,7.10
2018-12-29T02:01:27.286Z,7.10
2018-12-29T02:06:26.826Z,7.00
2018-12-29T02:11:26.375Z,7.00
2018-12-29T02:16:25.934Z,7.10
2018-12-29T02:21:25.542Z,7.00
2018-12-29T02:26:25.101Z,7.00
2018-12-29T02:31:24.663Z,7.00
2018-12-29T02:36:24.190Z,6.90
2018-12-29T02:41:23.735Z,6.90
2018-12-29T02:46:23.283Z,7.00
2018-12-29T02:51:22.841Z,6.90
2018-12-29T02:56:22.391Z,6.90
2018-12-29T03:01:21.926Z,6.80
2018-12-29T03:06:21.473Z,6.90
2018-12-29T03:11:21.026Z,6.90
2018-12-29T03:16:20.603Z,6.80
2018-12-29T03:21:20.190Z,6.80
2018-12-29T03:26:19.722Z,6.80
2018-12-29T03:31:19.260Z,6.80
2018-12-29T03:36:18.804Z,6.80
2018-12-29T03:41:18.359Z,6.80
2018-12-29T03:46:17.889Z,6.80
2018-12-29T03:51:17.487Z,6.90
2018-12-29T03:56:17.027Z,6.90
2018-12-29T04:01:16.571Z,6.90
2018-12-29T04:06:16.116Z,6.90
2018-12-29T04:11:15.660Z,6.90
2018-12-29T04:16:15.197Z,6.80
2018-12-29T04:21:14.747Z,6.90
2018-12-29T04:26:14.296Z,6.80
2018-12-29T04:31:13.845Z,6.80
2018-12-29T04:36:13.395Z,6.90
2018-12-29T04:41:12.927Z,6.90
2018-12-29T04:46:12.481Z,6.80
2018-12-29T04:51:12.013Z,6.80
2018-12-29T04:56:11.546Z,6.80
2018-12-29T05:01:11.099Z,6.80
2018-12-29T05:06:10.643Z,6.80
2018-12-29T05:11:10.194Z,6.80
2018-12-29T05:16:13.020Z,6.80
2018-12-29T05:21:10.976Z,6.80
2018-12-29T05:26:10.523Z,6.80
2018-12-29T05:31:10.055Z,6.80
2018-12-29T05:36:09.599Z,6.70
2018-12-29T05:41:09.145Z,6.70
2018-12-29T05:46:08.685Z,6.70
2018-12-29T05:51:08.223Z,6.70
2018-12-29T05:56:07.775Z,6.70
2018-12-29T06:01:07.313Z,6.70
2018-12-29T06:06:06.837Z,6.70
2018-12-29T06:11:06.373Z,6.70
2018-12-29T06:16:05.908Z,6.70
2018-12-29T06:21:05.457Z,6.70
2018-12-29T06:26:05.002Z,6.70
2018-12-29T06:31:04.612Z,6.70
2018-12-29T06:36:04.158Z,6.60
2018-12-29T06:41:04.674Z,6.70
2018-12-29T06:46:04.223Z,6.50
2018-12-29T06:51:03.770Z,6.50
2018-12-29T06:56:03.302Z,6.70
2018-12-29T07:01:02.850Z,6.60
2018-12-29T07:06:02.423Z,6.60
2018-12-29T07:11:01.949Z,6.60
2018-12-29T07:16:01.495Z,6.60
2018-12-29T07:21:01.121Z,6.60
2018-12-29T07:26:00.696Z,6.60
2018-12-29T07:31:00.349Z,6.50
2018-12-29T07:35:59.882Z,6.50
2018-12-29T07:40:59.421Z,6.60
2018-12-29T07:45:59.005Z,6.60
2018-12-29T07:50:58.686Z,6.60
2018-12-29T07:55:58.217Z,6.50
2018-12-29T08:00:57.750Z,6.40
2018-12-29T08:05:57.309Z,6.50
2018-12-29T08:10:56.879Z,6.50
2018-12-29T08:15:56.425Z,6.50
2018-12-29T08:20:56.017Z,6.60
2018-12-29T08:25:55.635Z,6.60
2018-12-29T08:30:55.206Z,6.60
2018-12-29T08:35:54.726Z,6.70
2018-12-29T08:40:54.278Z,6.80
2018-12-29T08:45:53.824Z,6.70
2018-12-29T08:50:53.372Z,6.70
2018-12-29T08:55:52.907Z,6.80
2018-12-29T09:00:52.445Z,6.80
2018-12-29T09:05:51.990Z,6.70
2018-12-29T09:10:51.526Z,6.70
2018-12-29T09:15:51.057Z,6.80
2018-12-29T09:20:52.693Z,6.80
2018-12-29T09:25:52.418Z,6.80
2018-12-29T09:31:05.179Z,6.80
2018-12-29T09:36:04.796Z,6.80
2018-12-29T09:41:04.555Z,6.80
2018-12-29T09:46:04.127Z,6.80
2018-12-29T09:51:03.802Z,6.90
2018-12-29T09:56:03.461Z,7.00
2018-12-29T10:01:03.096Z,7.00
2018-12-29T10:06:02.705Z,7.10
2018-12-29T10:11:02.249Z,7.10
2018-12-29T10:16:01.804Z,7.00
2018-12-29T10:21:01.348Z,7.10
2018-12-29T10:26:00.891Z,7.00
2018-12-29T10:31:00.574Z,7.10
2018-12-29T10:36:01.197Z,7.20
2018-12-29T10:41:00.742Z,7.20
2018-12-29T10:46:00.285Z,7.10
2018-12-29T10:50:59.821Z,7.20
2018-12-29T10:55:59.361Z,7.00
2018-12-29T11:00:58.900Z,7.00
2018-12-29T11:05:58.455Z,7.00
2018-12-29T11:10:58.071Z,7.00
2018-12-29T11:15:57.634Z,7.10
2018-12-29T11:20:57.254Z,7.10
2018-12-29T11:25:56.810Z,7.10
2018-12-29T11:30:57.318Z,7.00
2018-12-29T11:35:56.862Z,7.00
2018-12-29T11:40:56.402Z,7.10
2018-12-29T11:45:55.953Z,7.50
2018-12-29T11:50:55.579Z,7.50
2018-12-29T11:55:55.185Z,7.60
2018-12-29T12:00:54.809Z,7.40
2018-12-29T12:05:54.355Z,7.40
2018-12-29T12:10:54.985Z,7.50
2018-12-29T12:15:54.637Z,7.60
2018-12-29T12:20:54.599Z,7.60
2018-12-29T12:25:54.210Z,7.60
2018-12-29T12:30:53.770Z,7.50
2018-12-29T12:35:53.592Z,7.50
2018-12-29T12:40:53.315Z,7.40
2018-12-29T12:45:54.206Z,7.50
2018-12-29T12:50:53.759Z,7.50
2018-12-29T12:55:53.394Z,7.60
2018-12-29T13:00:58.966Z,7.60
2018-12-29T13:05:59.106Z,7.60
2018-12-29T13:10:58.719Z,7.50
2018-12-29T13:15:58.342Z,7.50
2018-12-29T13:20:57.886Z,7.60
2018-12-29T13:25:57.526Z,7.70
2018-12-29T13:30:57.099Z,7.80
2018-12-29T13:35:56.710Z,7.80
2018-12-29T13:40:56.353Z,7.80
2018-12-29T13:45:55.925Z,8.00
2018-12-29T13:50:56.581Z,7.90
2018-12-29T13:55:56.135Z,7.80
2018-12-29T14:00:55.807Z,7.80
2018-12-29T14:05:55.501Z,8.00
2018-12-29T14:10:55.033Z,7.90
2018-12-29T14:15:54.578Z,8.00
2018-12-29T14:20:54.214Z,8.10
2018-12-29T14:25:54.370Z,8.00
2018-12-29T14:30:54.000Z,7.80
2018-12-29T14:35:53.613Z,7.90
2018-12-29T14:40:53.236Z,7.90
2018-12-29T14:45:52.779Z,8.00
2018-12-29T14:50:52.364Z,8.00
2018-12-29T14:55:53.050Z,8.00
2018-12-29T15:00:52.610Z,8.00
2018-12-29T15:05:52.156Z,8.10
2018-12-29T15:10:53.125Z,8.00
2018-12-29T15:15:53.458Z,8.00
2018-12-29T15:20:53.597Z,8.00
2018-12-29T15:25:53.145Z,8.00
2018-12-29T15:30:52.830Z,8.00
2018-12-29T15:35:52.390Z,8.10
2018-12-29T15:40:52.068Z,8.00
2018-12-29T15:45:51.621Z,8.00
2018-12-29T15:50:51.659Z,8.00
2018-12-29T15:55:51.206Z,7.90
2018-12-29T16:00:51.276Z,7.90
2018-12-29T16:05:50.906Z,7.90
2018-12-29T16:10:50.525Z,7.90
2018-12-29T16:15:50.080Z,8.00
2018-12-29T16:20:54.226Z,8.10
2018-12-29T16:25:51.337Z,8.20
2018-12-29T16:30:50.957Z,8.30
2018-12-29T16:35:50.586Z,8.10
2018-12-29T16:40:57.660Z,7.90
2018-12-29T16:45:51.518Z,7.90
2018-12-29T16:50:51.055Z,7.80
2018-12-29T16:55:50.779Z,7.80
2018-12-29T17:00:50.506Z,7.90
2018-12-29T17:05:50.353Z,7.90
2018-12-29T17:10:50.013Z,7.90
2018-12-29T17:15:49.567Z,7.80
2018-12-29T17:20:49.195Z,7.90
2018-12-29T17:25:48.815Z,7.80
2018-12-29T17:30:48.362Z,7.70
2018-12-29T17:35:47.979Z,7.70
2018-12-29T17:40:48.014Z,7.70
2018-12-29T17:45:47.718Z,7.70
2018-12-29T17:50:47.336Z,7.70
2018-12-29T17:55:47.242Z,7.80
2018-12-29T18:00:47.825Z,7.70
2018-12-29T18:05:47.436Z,7.70
2018-12-29T18:10:47.041Z,7.70
2018-12-29T18:15:46.723Z,7.70
2018-12-29T18:20:46.747Z,7.70
2018-12-29T18:25:46.359Z,7.60
2018-12-29T18:30:45.995Z,7.70
2018-12-29T18:35:46.021Z,7.70
2018-12-29T18:40:45.635Z,7.60
2018-12-29T18:45:45.167Z,7.50
2018-12-29T18:50:45.148Z,7.50
2018-12-29T18:55:44.761Z,7.50
2018-12-29T19:00:44.313Z,7.40
2018-12-29T19:05:44.042Z,7.30
2018-12-29T19:10:55.659Z,7.20
2018-12-29T19:15:55.594Z,7.20
2018-12-29T19:20:55.222Z,7.20
2018-12-29T19:25:55.181Z,7.10
2018-12-29T19:30:55.099Z,7.10
2018-12-29T19:35:56.010Z,6.80
2018-12-29T19:40:57.783Z,6.70
2018-12-29T19:45:57.845Z,6.50
2018-12-29T19:50:57.493Z,6.40
2018-12-29T19:55:57.458Z,6.30
2018-12-29T20:00:57.066Z,6.10
2018-12-29T20:05:56.679Z,6.20
2018-12-29T20:10:56.209Z,6.00
2018-12-29T20:15:55.749Z,6.10
2018-12-29T20:20:55.382Z,6.00
2018-12-29T20:25:54.931Z,5.90
2018-12-29T20:30:54.466Z,5.80
2018-12-29T20:35:54.394Z,5.70
2018-12-29T20:40:54.044Z,5.90
2018-12-29T20:45:53.633Z,5.70
2018-12-29T20:50:53.254Z,5.70
2018-12-29T20:55:52.951Z,5.70
2018-12-29T21:00:52.912Z,5.60
2018-12-29T21:05:52.543Z,5.60
2018-12-29T21:10:52.135Z,5.70
2018-12-29T21:15:51.787Z,5.60
2018-12-29T21:20:51.495Z,5.80
2018-12-29T21:25:51.546Z,5.80
2018-12-29T21:30:51.225Z,5.80
2018-12-29T21:35:50.864Z,6.00
2018-12-29T21:40:50.490Z,6.00
2018-12-29T21:45:50.154Z,6.10
2018-12-29T21:50:49.972Z,6.10
2018-12-29T21:55:49.585Z,6.00
2018-12-29T22:00:49.130Z,6.00
2018-12-29T22:05:48.688Z,6.10
2018-12-29T22:10:48.411Z,6.20
2018-12-29T22:15:48.122Z,6.10
2018-12-29T22:20:47.679Z,6.10
2018-12-29T22:25:48.634Z,6.00
2018-12-29T22:30:48.278Z,6.10
2018-12-29T22:35:47.834Z,6.00
2018-12-29T22:40:47.529Z,6.10
2018-12-29T22:45:47.365Z,6.10
2018-12-29T22:50:46.897Z,6.00
2018-12-29T22:55:46.515Z,6.10
2018-12-29T23:00:48.227Z,6.00
2018-12-29T23:05:47.936Z,6.10
2018-12-29T23:10:48.010Z,6.00
2018-12-29T23:15:47.825Z,6.00
2018-12-29T23:20:49.319Z,6.10
2018-12-29T23:25:49.066Z,6.00
2018-12-29T23:30:48.727Z,6.00
2018-12-29T23:35:48.405Z,6.10
2018-12-29T23:40:48.099Z,6.00
2018-12-29T23:45:48.010Z,6.10
2018-12-29T23:50:47.676Z,6.20
2018-12-29T23:55:47.379Z,6.20
